Time;durP1;ratioP1;P1;durP2;ratioP2;P2;SDS_P1;SDS_P2;PMS_P1;PMS_P2;Temp;Humidity;BMP_temperature;BMP_pressure;BME280_temperature;BME280_humidity;BME280_pressure;Samples;Min_cycle;Max_cycle;Signal;HPM_P1;HPM_P2
2023/01/13 00:02:42;;;;;;;;;10.00;9.00;;;;;11.55;48.41;98578.03;6300400;27;96590;-64
2023/01/13 00:05:46;;;;;;;;;7.60;7.00;;;;;11.52;48.51;98573.13;6315941;27;96291;-63
2023/01/13 00:08:50;;;;;;;;;11.00;9.00;;;;;11.57;48.48;98574.06;6320567;27;96800;-64
2023/01/13 00:11:56;;;;;;;;;7.20;7.00;;;;;11.62;48.49;98571.47;6312439;27;96909;-64
2023/01/13 00:14:59;;;;;;;;;7.00;6.60;;;;;11.64;48.50;98563.94;6308359;27;96225;-63
2023/01/13 00:18:02;;;;;;;;;10.00;8.75;;;;;11.64;48.43;98569.34;6321206;27;96283;-64
2023/01/13 00:21:08;;;;;;;;;8.50;8.50;;;;;11.64;48.55;98565.81;6321457;27;96477;-63
2023/01/13 00:24:11;;;;;;;;;9.60;9.00;;;;;11.63;48.63;98565.00;6320920;27;96239;-64
2023/01/13 00:27:16;;;;;;;;;8.00;8.00;;;;;11.66;48.75;98574.53;6319979;27;96764;-64
2023/01/13 00:30:20;;;;;;;;;8.00;7.00;;;;;11.57;48.26;98555.16;6304436;27;96342;-63
2023/01/13 00:33:23;;;;;;;;;9.00;8.00;;;;;11.71;48.48;98566.53;6320700;27;96451;-64
2023/01/13 00:36:27;;;;;;;;;8.20;8.00;;;;;11.68;48.75;98566.97;6320627;27;96516;-64
2023/01/13 00:39:31;;;;;;;;;7.50;7.00;;;;;11.60;49.05;98564.66;6321828;27;96377;-64
2023/01/13 00:45:57;;;;;;;;;7.00;7.00;;;;;11.53;49.21;98569.38;6321203;27;96189;-63
2023/01/13 00:49:00;;;;;;;;;9.00;8.50;;;;;11.53;49.41;98567.47;6321169;27;96336;-64
2023/01/13 00:52:03;;;;;;;;;7.00;7.00;;;;;11.51;49.51;98564.19;6320154;27;96992;-62
2023/01/13 00:55:08;;;;;;;;;6.00;6.00;;;;;11.54;49.36;98568.28;6318684;27;96480;-64
2023/01/13 00:58:13;;;;;;;;;6.00;6.00;;;;;11.50;49.61;98564.41;6320928;27;96306;-64
2023/01/13 01:01:19;;;;;;;;;7.00;7.00;;;;;11.42;49.47;98554.00;6318339;27;96258;-63
2023/01/13 01:04:23;;;;;;;;;7.00;6.00;;;;;11.53;49.41;98553.97;6303512;27;96605;-65
2023/01/13 01:07:26;;;;;;;;;8.00;8.00;;;;;11.46;49.63;98553.28;6321991;27;96453;-64
2023/01/13 01:10:29;;;;;;;;;6.00;6.00;;;;;11.38;50.28;98550.13;6297272;27;96255;-63
2023/01/13 01:13:35;;;;;;;;;6.00;6.00;;;;;11.36;50.00;98546.81;6298481;27;96223;-63
2023/01/13 01:16:40;;;;;;;;;6.80;6.00;;;;;11.25;50.42;98545.75;6314238;27;96805;-63
2023/01/13 01:19:44;;;;;;;;;7.00;6.00;;;;;11.28;50.13;98543.44;6321018;27;97111;-65
2023/01/13 01:22:48;;;;;;;;;7.40;7.40;;;;;11.30;50.42;98540.47;6322540;27;96866;-65
2023/01/13 01:25:51;;;;;;;;;7.00;6.00;;;;;11.34;50.21;98532.75;6320825;27;96351;-64
2023/01/13 01:28:56;;;;;;;;;6.20;6.00;;;;;11.29;50.27;98533.44;6321756;27;96560;-63
2023/01/13 01:31:59;;;;;;;;;7.00;7.00;;;;;11.29;50.13;98534.25;6299739;27;96878;-64
2023/01/13 01:35:03;;;;;;;;;7.80;6.80;;;;;11.30;50.33;98533.22;6297135;27;96298;-64
2023/01/13 01:38:07;;;;;;;;;8.00;7.00;;;;;11.21;50.63;98533.78;6317545;27;96247;-64
2023/01/13 01:41:14;;;;;;;;;8.40;8.40;;;;;11.25;50.30;98522.31;6319754;27;96213;-64
2023/01/13 01:44:50;;;;;;;;;6.00;6.00;;;;;11.28;50.51;98524.53;6321228;27;96507;-64
2023/01/13 01:47:59;;;;;;;;;7.00;7.00;;;;;11.29;50.26;98526.16;6305594;27;96689;-65
2023/01/13 01:51:03;;;;;;;;;7.00;7.00;;;;;11.31;50.23;98515.16;6312317;27;97375;-64
2023/01/13 01:54:12;;;;;;;;;8.00;7.50;;;;;11.23;50.62;98516.34;6302229;27;96258;-64
2023/01/13 01:57:19;;;;;;;;;7.00;7.00;;;;;11.28;50.62;98510.22;6321491;27;96244;-63
2023/01/13 02:00:26;;;;;;;;;6.00;6.00;;;;;11.31;50.52;98515.16;6319978;27;97960;-63
2023/01/13 02:03:32;;;;;;;;;8.00;8.00;;;;;11.36;50.33;98509.03;6312416;27;96186;-65
2023/01/13 02:06:35;;;;;;;;;7.00;6.40;;;;;11.41;50.11;98506.47;6320974;27;96309;-65
2023/01/13 02:09:39;;;;;;;;;5.00;4.00;;;;;11.46;49.89;98504.69;6319862;27;96248;-63
2023/01/13 02:12:45;;;;;;;;;8.00;8.00;;;;;11.39;50.15;98503.16;6305850;27;96259;-63
2023/01/13 02:15:55;;;;;;;;;8.00;7.00;;;;;11.47;49.96;98506.34;6320825;27;96464;-63
2023/01/13 02:19:11;;;;;;;;;6.40;6.00;;;;;11.53;49.53;98501.88;6320701;27;96337;-63
2023/01/13 02:22:40;;;;;;;;;7.00;7.00;;;;;11.57;49.92;98495.78;6316669;27;96276;-64
2023/01/13 02:25:58;;;;;;;;;7.20;7.00;;;;;11.54;50.05;98484.59;6302522;27;98628;-63
2023/01/13 02:32:49;;;;;;;;;6.00;6.00;;;;;11.64;49.73;98485.63;6304330;27;96646;-64
2023/01/13 02:36:01;;;;;;;;;4.20;3.80;;;;;11.59;50.14;98480.13;6320197;27;96283;-63
2023/01/13 02:39:12;;;;;;;;;6.60;6.00;;;;;11.63;49.86;98494.00;6312606;27;96231;-65
2023/01/13 02:45:48;;;;;;;;;7.00;6.00;;;;;11.60;49.81;98473.69;6322875;27;96936;-64
2023/01/13 02:48:57;;;;;;;;;6.00;6.00;;;;;11.50;50.58;98475.34;6324753;27;96510;-66
2023/01/13 02:52:09;;;;;;;;;6.00;6.00;;;;;11.55;50.51;98462.78;6312552;27;96242;-64
2023/01/13 02:55:22;;;;;;;;;6.40;6.00;;;;;11.65;50.16;98473.78;6324500;27;96240;-63
2023/01/13 02:58:30;;;;;;;;;5.20;5.20;;;;;11.58;50.41;98472.28;6324794;27;96935;-64
2023/01/13 03:01:34;;;;;;;;;6.00;5.00;;;;;11.67;50.16;98474.38;6315726;27;97029;-65
2023/01/13 03:04:50;;;;;;;;;5.00;5.00;;;;;11.67;50.29;98457.34;6307628;27;96240;-64
2023/01/13 03:08:09;;;;;;;;;4.80;4.00;;;;;11.64;50.15;98457.81;6316202;27;96321;-64
2023/01/13 03:11:14;;;;;;;;;6.40;6.40;;;;;11.66;50.30;98456.53;6297302;27;96618;-64
2023/01/13 03:14:34;;;;;;;;;7.00;7.00;;;;;11.70;50.13;98454.16;6322505;27;96345;-64
2023/01/13 03:17:44;;;;;;;;;5.00;5.00;;;;;11.66;50.29;98458.41;6324909;27;96232;-65
2023/01/13 03:20:59;;;;;;;;;5.80;5.20;;;;;11.64;50.00;98449.72;6323741;27;96927;-63
2023/01/13 03:24:07;;;;;;;;;5.20;5.00;;;;;11.56;50.40;98452.81;6318527;27;96301;-64
2023/01/13 03:27:15;;;;;;;;;5.00;5.00;;;;;11.29;50.24;98404.72;6302071;27;96998;-64
2023/01/13 03:30:23;;;;;;;;;6.00;6.00;;;;;11.56;50.19;98439.31;6317700;27;96519;-64
2023/01/13 03:33:30;;;;;;;;;4.00;4.00;;;;;11.70;50.04;98438.78;6314774;27;96428;-64
2023/01/13 03:36:38;;;;;;;;;5.00;5.00;;;;;11.72;49.88;98430.47;6323269;27;96272;-63
2023/01/13 03:39:47;;;;;;;;;6.00;6.00;;;;;11.78;49.93;98434.13;6318229;27;96366;-64
2023/01/13 03:46:21;;;;;;;;;6.00;5.00;;;;;11.79;49.61;98431.16;6321040;27;96350;-63
2023/01/13 03:49:31;;;;;;;;;4.00;4.00;;;;;11.83;49.54;98432.31;6317151;27;96559;-63
2023/01/13 03:52:38;;;;;;;;;4.00;4.00;;;;;11.89;49.57;98433.22;6323315;27;96382;-64
2023/01/13 03:55:46;;;;;;;;;5.00;5.00;;;;;11.95;49.67;98426.88;6316642;27;96836;-64
2023/01/13 03:58:52;;;;;;;;;6.00;5.00;;;;;12.05;49.37;98430.59;6323113;27;96236;-64
2023/01/13 04:02:02;;;;;;;;;3.00;3.00;;;;;12.10;48.96;98424.44;6320499;27;96577;-64
2023/01/13 04:05:09;;;;;;;;;5.00;4.25;;;;;12.07;49.09;98439.25;6325911;27;96389;-65
2023/01/13 04:08:19;;;;;;;;;5.40;5.00;;;;;12.03;49.04;98410.25;6324971;27;96911;-64
2023/01/13 04:11:32;;;;;;;;;5.00;5.00;;;;;12.20;48.98;98431.91;6309458;27;96889;-65
2023/01/13 04:14:36;;;;;;;;;4.40;4.00;;;;;12.26;48.77;98430.97;6315395;27;96683;-64
2023/01/13 04:17:39;;;;;;;;;4.60;4.60;;;;;12.29;48.98;98430.47;6322601;27;96511;-64
2023/01/13 04:20:44;;;;;;;;;6.00;5.00;;;;;12.33;48.88;98428.91;6324583;27;96335;-64
2023/01/13 04:23:50;;;;;;;;;6.20;5.00;;;;;12.29;48.86;98433.16;6318258;27;96730;-65
2023/01/13 04:26:55;;;;;;;;;4.00;3.00;;;;;12.33;48.86;98426.19;6313628;27;96323;-65
2023/01/13 04:29:58;;;;;;;;;5.00;5.00;;;;;12.36;48.84;98428.44;6319566;27;96337;-65
2023/01/13 04:33:02;;;;;;;;;5.00;4.50;;;;;12.35;48.89;98427.59;6315029;27;96673;-64
2023/01/13 04:36:07;;;;;;;;;6.00;6.00;;;;;12.27;49.07;98427.16;6324483;27;96935;-63
2023/01/13 04:39:12;;;;;;;;;5.00;5.00;;;;;12.35;49.10;98432.19;6324049;27;98603;-67
2023/01/13 04:42:15;;;;;;;;;7.00;6.00;;;;;12.35;48.99;98433.00;6305886;27;96883;-65
2023/01/13 04:45:18;;;;;;;;;7.00;7.00;;;;;12.39;48.84;98430.63;6312030;27;96826;-65
2023/01/13 04:48:22;;;;;;;;;5.00;5.00;;;;;12.40;48.63;98437.69;6317865;27;96445;-65
2023/01/13 04:51:26;;;;;;;;;5.00;5.00;;;;;12.43;48.68;98437.19;6320942;27;97145;-64
2023/01/13 04:54:30;;;;;;;;;6.40;5.40;;;;;12.49;48.58;98441.63;6317827;27;96630;-64
2023/01/13 04:57:36;;;;;;;;;5.80;4.80;;;;;12.53;48.49;98431.94;6311295;27;97596;-65
2023/01/13 05:00:39;;;;;;;;;5.00;5.00;;;;;12.56;48.25;98437.69;6320052;27;96247;-64
2023/01/13 05:03:43;;;;;;;;;6.40;6.00;;;;;12.53;48.33;98440.06;6317222;27;96364;-64
2023/01/13 05:06:46;;;;;;;;;4.40;4.40;;;;;12.52;48.37;98438.41;6319438;27;98265;-64
2023/01/13 05:09:51;;;;;;;;;4.20;4.20;;;;;12.49;48.44;98444.31;6320810;27;96714;-64
2023/01/13 05:19:39;;;;;;;;;4.67;4.00;;;;;12.49;48.28;98438.91;6318160;27;97164;-64
2023/01/13 05:26:05;;;;;;;;;5.00;4.00;;;;;12.39;48.67;98441.44;6308475;27;96723;-64
2023/01/13 05:29:09;;;;;;;;;6.00;4.25;;;;;12.47;48.43;98444.56;6315098;27;96231;-64
2023/01/13 05:32:12;;;;;;;;;7.00;5.00;;;;;12.36;48.84;98444.66;6319119;27;96677;-64
2023/01/13 05:35:16;;;;;;;;;6.00;5.00;;;;;12.33;48.86;98445.13;6310856;27;96737;-64
2023/01/13 05:38:19;;;;;;;;;4.80;4.80;;;;;12.38;48.73;98446.03;6316045;27;96269;-64
2023/01/13 05:44:45;;;;;;;;;5.00;5.00;;;;;12.44;48.74;98444.25;6303802;27;96382;-66
2023/01/13 05:47:49;;;;;;;;;5.00;5.00;;;;;12.43;48.83;98439.88;6316399;27;96365;-66
2023/01/13 05:50:52;;;;;;;;;6.50;5.50;;;;;12.43;48.68;98451.53;6321440;27;97461;-65
2023/01/13 05:53:58;;;;;;;;;4.00;4.00;;;;;12.53;48.55;98449.00;6311461;27;96286;-64
2023/01/13 05:57:02;;;;;;;;;5.25;5.00;;;;;12.57;48.28;98438.50;6310337;27;96563;-66
2023/01/13 06:00:07;;;;;;;;;5.00;5.00;;;;;12.42;48.54;98432.84;6315941;27;96462;-66
2023/01/13 06:03:14;;;;;;;;;4.00;3.00;;;;;12.51;48.54;98445.72;6304973;27;97001;-66
2023/01/13 06:06:18;;;;;;;;;6.50;5.00;;;;;12.55;48.71;98444.19;6317861;27;96925;-64
2023/01/13 06:09:22;;;;;;;;;6.00;5.00;;;;;12.61;48.46;98447.75;6316706;27;96504;-64
2023/01/13 06:12:26;;;;;;;;;3.60;3.60;;;;;12.56;48.52;98453.91;6304870;27;99699;-64
2023/01/13 06:15:30;;;;;;;;;4.00;3.00;;;;;12.50;48.45;98443.28;6320315;27;96501;-65
2023/01/13 06:18:34;;;;;;;;;5.00;4.00;;;;;12.57;48.35;98447.44;6334121;27;97054;-65
2023/01/13 06:21:37;;;;;;;;;6.00;5.00;;;;;12.53;48.55;98443.59;6320602;27;98719;-67
2023/01/13 06:24:41;;;;;;;;;5.00;4.00;;;;;12.63;48.21;98448.34;6321278;27;96267;-64
2023/01/13 06:27:45;;;;;;;;;3.80;3.80;;;;;12.65;48.27;98456.22;6309952;27;97576;-66
2023/01/13 06:30:54;;;;;;;;;4.00;3.00;;;;;12.68;48.03;98456.53;6306742;27;96914;-65
2023/01/13 06:34:02;;;;;;;;;3.00;3.00;;;;;12.75;48.01;98459.09;6315139;27;96701;-66
2023/01/13 06:37:06;;;;;;;;;5.00;3.40;;;;;12.73;47.97;98455.81;6310832;27;96272;-64
2023/01/13 06:40:15;;;;;;;;;5.20;4.80;;;;;12.78;47.90;98458.59;6315380;27;96359;-66
2023/01/13 06:43:20;;;;;;;;;5.80;5.00;;;;;12.88;47.60;98466.88;6306637;27;96385;-65
2023/01/13 06:46:23;;;;;;;;;5.00;4.00;;;;;12.90;47.59;98464.75;6313585;27;96746;-65
2023/01/13 06:49:27;;;;;;;;;4.25;4.25;;;;;12.85;47.52;98465.47;6307188;27;96402;-64
2023/01/13 06:52:30;;;;;;;;;4.40;4.00;;;;;12.92;47.34;98458.00;6302441;27;96620;-64
2023/01/13 06:55:33;;;;;;;;;5.00;4.50;;;;;12.81;47.62;98466.22;6302821;27;96640;-66
2023/01/13 06:58:38;;;;;;;;;4.60;4.00;;;;;12.91;47.27;98456.38;6323649;27;96270;-67
2023/01/13 07:01:42;;;;;;;;;5.00;5.00;;;;;12.83;47.17;98442.44;6299075;27;96927;-64
2023/01/13 07:04:45;;;;;;;;;4.00;4.00;;;;;12.58;47.24;98402.28;6315823;27;96339;-63
2023/01/13 07:07:49;;;;;;;;;6.20;5.00;;;;;12.93;47.23;98465.06;6318707;27;96387;-63
2023/01/13 07:10:53;;;;;;;;;6.00;5.00;;;;;12.75;47.61;98459.91;6326280;27;96223;-64
2023/01/13 07:17:23;;;;;;;;;4.00;4.00;;;;;12.84;47.33;98466.56;6325542;27;96653;-64
2023/01/13 07:20:27;;;;;;;;;5.00;4.33;;;;;12.66;47.69;98468.69;6326112;27;96394;-64
2023/01/13 07:23:32;;;;;;;;;2.80;2.00;;;;;12.79;47.45;98468.34;6325814;27;97492;-66
2023/01/13 07:26:36;;;;;;;;;3.25;3.00;;;;;12.78;47.56;98461.31;6319551;27;96507;-65
2023/01/13 07:29:42;;;;;;;;;5.00;5.00;;;;;12.76;47.48;98460.72;6322858;27;96502;-64
2023/01/13 07:32:46;;;;;;;;;3.00;3.00;;;;;12.89;47.24;98480.16;6324793;27;97164;-66
2023/01/13 07:35:56;;;;;;;;;5.20;5.20;;;;;12.70;47.39;98437.38;6319810;27;96571;-65
2023/01/13 07:39:00;;;;;;;;;3.00;3.00;;;;;12.83;47.24;98464.91;6308327;27;96312;-66
2023/01/13 07:45:26;;;;;;;;;3.40;3.40;;;;;12.89;46.89;98450.41;6309285;27;96825;-67
2023/01/13 07:48:32;;;;;;;;;4.00;4.00;;;;;13.03;46.75;98454.41;6308269;27;96420;-66
2023/01/13 07:51:36;;;;;;;;;4.00;4.00;;;;;13.09;46.75;98465.31;6312887;27;96576;-65
2023/01/13 07:54:39;;;;;;;;;4.00;4.00;;;;;13.19;46.70;98465.50;6309917;27;96850;-66
2023/01/13 07:57:43;;;;;;;;;6.00;6.00;;;;;13.23;46.62;98464.75;6307618;27;96357;-66
2023/01/13 08:00:48;;;;;;;;;4.00;4.00;;;;;13.27;46.49;98462.34;6309656;27;96402;-65
2023/01/13 08:03:51;;;;;;;;;6.00;5.40;;;;;13.29;46.27;98463.72;6310713;27;96369;-65
2023/01/13 08:06:55;;;;;;;;;7.00;6.80;;;;;13.34;46.33;98466.50;6306270;27;96687;-65
2023/01/13 08:09:58;;;;;;;;;4.80;4.00;;;;;13.30;46.25;98465.38;6310438;27;96288;-65
2023/01/13 08:13:20;;;;;;;;;6.80;5.20;;;;;13.28;46.11;98456.69;6307309;27;96488;-66
2023/01/13 08:16:25;;;;;;;;;5.40;5.00;;;;;13.29;46.29;98454.81;6311741;27;96211;-63
2023/01/13 08:19:29;;;;;;;;;6.00;5.00;;;;;13.27;46.40;98456.94;6304056;27;96607;-64
2023/01/13 08:22:32;;;;;;;;;4.75;4.00;;;;;13.33;46.20;98462.19;6308414;27;96543;-64
2023/01/13 08:25:36;;;;;;;;;8.00;7.33;;;;;13.40;46.22;98453.84;6312889;27;96258;-64
2023/01/13 08:28:40;;;;;;;;;4.40;4.40;;;;;13.36;46.32;98445.44;6304967;27;96640;-64
2023/01/13 08:31:45;;;;;;;;;5.00;4.60;;;;;13.42;46.18;98462.56;6323484;27;96250;-65
2023/01/13 08:34:48;;;;;;;;;6.00;5.00;;;;;13.59;45.74;98459.78;6323285;27;96730;-64
2023/01/13 08:37:52;;;;;;;;;4.80;4.40;;;;;13.60;45.70;98443.28;6323682;27;96307;-65
2023/01/13 08:40:56;;;;;;;;;6.00;6.00;;;;;13.68;45.33;98448.25;6306310;27;96280;-64
2023/01/13 08:43:59;;;;;;;;;5.00;4.00;;;;;13.88;45.07;98461.22;6318322;27;96248;-65
2023/01/13 08:47:04;;;;;;;;;4.00;4.00;;;;;14.00;44.84;98466.53;6316831;27;96875;-65
2023/01/13 08:50:08;;;;;;;;;6.00;6.00;;;;;14.09;44.57;98454.16;6312298;27;97280;-64
2023/01/13 08:53:12;;;;;;;;;6.60;5.60;;;;;14.25;44.36;98458.69;6307256;27;96803;-65
2023/01/13 08:56:15;;;;;;;;;7.00;7.00;;;;;14.25;43.95;98455.97;6320054;27;96317;-64
2023/01/13 08:59:20;;;;;;;;;5.40;4.40;;;;;14.33;43.86;98453.59;6323300;27;96392;-64
2023/01/13 09:02:26;;;;;;;;;5.00;5.00;;;;;14.35;43.72;98455.25;6323322;27;96457;-64
2023/01/13 09:05:29;;;;;;;;;4.60;4.00;;;;;14.57;43.44;98448.69;6316393;27;96940;-65
2023/01/13 09:08:33;;;;;;;;;6.75;6.00;;;;;14.68;43.35;98447.72;6311644;27;96396;-65
2023/01/13 09:15:00;;;;;;;;;6.00;6.00;;;;;15.04;42.36;98445.28;6310485;27;96301;-65
2023/01/13 09:18:06;;;;;;;;;5.00;4.25;;;;;15.29;42.03;98445.44;6312781;27;96427;-65
2023/01/13 09:21:10;;;;;;;;;6.60;6.40;;;;;15.25;41.36;98443.53;6323958;27;96220;-65
2023/01/13 09:24:13;;;;;;;;;6.60;6.00;;;;;15.60;41.07;98439.09;6321784;27;98921;-64
2023/01/13 09:27:17;;;;;;;;;7.00;6.00;;;;;15.91;40.95;98442.78;6321179;27;96380;-64
2023/01/13 09:30:20;;;;;;;;;5.40;5.40;;;;;16.08;40.29;98433.59;6318601;27;96388;-64
2023/01/13 09:36:46;;;;;;;;;5.00;5.00;;;;;16.34;39.43;98437.97;6309182;27;95911;-64
2023/01/13 09:39:50;;;;;;;;;6.60;6.00;;;;;16.31;39.62;98433.91;6322359;27;96989;-64
2023/01/13 09:49:46;;;;;;;;;4.00;4.00;;;;;15.96;39.48;98421.03;6324012;27;96313;-64
2023/01/13 09:52:49;;;;;;;;;4.00;3.25;;;;;15.95;39.48;98422.13;6323161;27;96491;-64
2023/01/13 09:55:53;;;;;;;;;6.00;6.00;;;;;15.91;39.35;98423.75;6322335;27;96532;-64
2023/01/13 09:58:57;;;;;;;;;3.00;3.00;;;;;15.97;39.07;98419.97;6319948;27;96671;-64
2023/01/13 10:02:15;;;;;;;;;3.80;3.80;;;;;16.48;38.45;98420.03;6319826;27;97128;-64
2023/01/13 10:05:31;;;;;;;;;4.00;3.75;;;;;17.58;36.98;98401.94;6321070;27;96356;-66
2023/01/13 10:08:37;;;;;;;;;3.00;3.00;;;;;18.60;35.32;98403.00;6307168;27;96421;-66
2023/01/13 10:15:14;;;;;;;;;5.00;5.00;;;;;18.81;34.28;98406.41;6325122;27;96279;-64
2023/01/13 10:18:24;;;;;;;;;3.50;3.50;;;;;18.72;34.19;98410.81;6324566;27;96356;-66
2023/01/13 10:21:47;;;;;;;;;3.25;3.00;;;;;18.59;34.50;98408.75;6325561;27;96441;-65
2023/01/13 10:25:19;;;;;;;;;3.00;3.00;;;;;18.47;34.79;98405.56;6310168;27;100103;-64
2023/01/13 10:28:24;;;;;;;;;3.40;3.40;;;;;18.11;35.24;98399.50;6324011;27;96327;-64
2023/01/13 10:31:27;;;;;;;;;3.00;3.00;;;;;18.04;35.10;98399.81;6316123;27;96286;-64
2023/01/13 10:34:30;;;;;;;;;3.00;3.00;;;;;17.90;35.17;98404.25;6325651;27;96364;-64
2023/01/13 10:37:35;;;;;;;;;2.00;2.00;;;;;17.59;35.38;98395.38;6323378;27;98821;-64
2023/01/13 10:40:48;;;;;;;;;4.00;3.00;;;;;17.38;35.69;98398.47;6315623;27;96330;-64
2023/01/13 10:44:01;;;;;;;;;4.40;4.00;;;;;17.44;36.08;98381.00;6321213;27;96408;-65
2023/01/13 10:47:20;;;;;;;;;5.00;4.60;;;;;17.20;35.96;98384.31;6324857;27;96354;-64
2023/01/13 10:50:28;;;;;;;;;3.00;2.00;;;;;17.22;35.91;98373.97;6324584;27;96582;-63
2023/01/13 10:53:44;;;;;;;;;3.80;3.80;;;;;17.11;36.10;98372.38;6324109;27;96654;-65
2023/01/13 10:56:48;;;;;;;;;3.75;3.75;;;;;17.31;36.42;98366.88;6324990;27;96323;-64
2023/01/13 10:59:52;;;;;;;;;3.00;3.00;;;;;17.41;35.80;98370.63;6324610;27;96815;-65
2023/01/13 11:03:16;;;;;;;;;2.80;2.80;;;;;17.64;35.65;98364.59;6327384;27;96286;-65
2023/01/13 11:06:22;;;;;;;;;5.00;5.00;;;;;18.00;34.98;98359.75;6326155;27;97246;-64
2023/01/13 11:09:30;;;;;;;;;3.00;3.00;;;;;18.27;34.30;98353.84;6314060;27;96794;-64
2023/01/13 11:12:35;;;;;;;;;4.33;3.00;;;;;18.46;34.22;98354.78;6317131;27;96314;-65
2023/01/13 11:15:43;;;;;;;;;3.40;3.40;;;;;18.54;33.79;98357.75;6321689;27;96841;-67
2023/01/13 11:19:10;;;;;;;;;4.00;2.00;;;;;18.75;33.30;98355.66;6326049;27;96283;-65
2023/01/13 11:22:19;;;;;;;;;4.00;3.00;;;;;19.17;33.08;98349.47;6324190;27;96236;-63
2023/01/13 11:25:31;;;;;;;;;2.40;2.40;;;;;19.15;32.80;98343.50;6323141;27;96333;-66
2023/01/13 11:28:44;;;;;;;;;3.00;3.00;;;;;18.95;32.90;98335.50;6313063;27;96962;-64
2023/01/13 11:31:52;;;;;;;;;4.00;3.00;;;;;18.75;33.21;98324.78;6324972;27;96836;-64
2023/01/13 11:35:00;;;;;;;;;2.00;2.00;;;;;18.68;33.41;98324.31;6319056;27;96306;-65
2023/01/13 11:38:13;;;;;;;;;4.00;3.00;;;;;18.26;33.67;98335.84;6327275;27;96564;-66
2023/01/13 11:41:42;;;;;;;;;4.40;4.40;;;;;18.11;34.09;98329.41;6321234;27;97468;-64
2023/01/13 11:44:50;;;;;;;;;3.00;3.00;;;;;17.97;34.42;98322.13;6310078;27;96459;-65
2023/01/13 11:47:59;;;;;;;;;3.00;3.00;;;;;17.66;34.89;98327.78;6322599;27;96726;-64
2023/01/13 11:51:09;;;;;;;;;4.00;4.00;;;;;17.69;35.09;98315.50;6303193;27;96499;-63
2023/01/13 11:54:38;;;;;;;;;3.00;3.00;;;;;17.35;35.55;98320.00;6309848;27;96339;-68
2023/01/13 11:58:05;;;;;;;;;2.00;2.00;;;;;17.36;35.81;98322.44;6305416;27;97271;-64
2023/01/13 12:01:31;;;;;;;;;1.80;1.80;;;;;17.07;35.98;98308.66;6302206;27;97135;-68
2023/01/13 12:04:43;;;;;;;;;4.60;4.00;;;;;17.05;36.30;98308.13;6313658;27;96806;-65
2023/01/13 12:07:58;;;;;;;;;2.00;2.00;;;;;16.98;36.30;98304.88;6302748;27;96280;-66
2023/01/13 12:11:10;;;;;;;;;4.00;4.00;;;;;16.66;37.02;98305.25;6308675;27;96215;-67
2023/01/13 12:14:22;;;;;;;;;4.00;3.40;;;;;16.65;36.57;98298.16;6303450;27;96822;-64
2023/01/13 12:17:34;;;;;;;;;2.00;2.00;;;;;16.74;36.70;98309.28;6306144;27;96682;-63
2023/01/13 12:20:48;;;;;;;;;2.60;2.60;;;;;16.46;37.06;98307.97;6312115;27;97367;-65
2023/01/13 12:24:01;;;;;;;;;2.00;2.00;;;;;16.42;37.36;98318.53;6319895;27;97751;-64
2023/01/13 12:27:11;;;;;;;;;2.00;2.00;;;;;16.29;37.56;98315.56;6312529;27;96787;-66
2023/01/13 12:30:26;;;;;;;;;4.20;3.80;;;;;16.43;37.67;98314.75;6317642;27;96582;-66
2023/01/13 12:33:41;;;;;;;;;4.40;4.00;;;;;16.59;37.50;98320.19;6300021;27;96840;-66
2023/01/13 12:36:55;;;;;;;;;3.50;3.00;;;;;16.35;37.61;98287.28;6314256;27;96693;-65
2023/01/13 12:40:15;;;;;;;;;4.00;4.00;;;;;16.55;37.50;98313.66;6319991;27;96747;-65
2023/01/13 12:46:55;;;;;;;;;3.50;3.00;;;;;16.39;37.83;98305.50;6318880;27;98126;-64
2023/01/13 12:50:40;;;;;;;;;4.00;4.00;;;;;16.32;38.14;98304.94;6324071;27;96447;-63
2023/01/13 12:53:43;;;;;;;;;5.00;5.00;;;;;16.39;37.96;98310.13;6319907;27;96774;-64
2023/01/13 12:56:46;;;;;;;;;3.00;3.00;;;;;16.35;38.16;98303.59;6323119;27;96346;-65
2023/01/13 13:00:15;;;;;;;;;3.00;3.00;;;;;16.36;38.00;98302.50;6308350;27;96811;-64
2023/01/13 13:03:31;;;;;;;;;2.75;2.75;;;;;16.36;38.15;98303.34;6308980;27;98819;-64
2023/01/13 13:06:38;;;;;;;;;4.00;4.00;;;;;16.37;38.35;98309.59;6309286;27;96317;-64
2023/01/13 13:09:45;;;;;;;;;4.00;4.00;;;;;16.37;38.34;98299.50;6321406;27;96248;-64
2023/01/13 13:13:18;;;;;;;;;4.00;4.00;;;;;16.35;38.46;98309.84;6320880;27;96237;-65
2023/01/13 13:16:46;;;;;;;;;5.00;5.00;;;;;16.39;38.44;98304.69;6317281;27;97183;-64
2023/01/13 13:19:51;;;;;;;;;4.40;4.00;;;;;16.36;38.60;98310.69;6318360;27;96403;-64
2023/01/13 13:22:55;;;;;;;;;7.00;6.00;;;;;16.42;38.60;98307.66;6317441;27;96362;-65
2023/01/13 13:26:03;;;;;;;;;3.00;3.00;;;;;16.47;38.51;98307.66;6319486;27;96673;-65
2023/01/13 13:29:26;;;;;;;;;3.40;3.40;;;;;16.47;38.45;98321.25;6320311;27;96479;-63
2023/01/13 13:32:56;;;;;;;;;5.00;4.40;;;;;16.40;38.41;98318.03;6318611;27;96944;-63
2023/01/13 13:36:13;;;;;;;;;4.60;4.60;;;;;16.34;38.67;98319.09;6307931;27;96844;-65
2023/01/13 13:49:48;;;;;;;;;4.00;4.00;;;;;16.08;38.84;98322.09;6314944;27;96333;-64
2023/01/13 13:53:00;;;;;;;;;5.00;5.00;;;;;16.07;39.09;98315.84;6311888;27;96600;-64
2023/01/13 13:56:15;;;;;;;;;4.00;4.00;;;;;15.98;39.00;98322.88;6311746;27;96938;-64
2023/01/13 13:59:22;;;;;;;;;4.75;4.75;;;;;15.80;39.20;98323.41;6312094;27;96552;-64
2023/01/13 14:02:29;;;;;;;;;4.60;4.60;;;;;15.92;39.08;98338.41;6308601;27;96490;-63
2023/01/13 14:05:35;;;;;;;;;6.00;6.00;;;;;15.89;38.99;98338.09;6316538;27;96843;-64
2023/01/13 14:08:43;;;;;;;;;4.00;3.60;;;;;15.78;39.03;98339.19;6311781;27;96300;-62
2023/01/13 14:12:00;;;;;;;;;5.00;5.00;;;;;15.76;39.29;98342.16;6311361;27;96402;-63
2023/01/13 14:15:04;;;;;;;;;5.00;3.00;;;;;15.74;39.37;98346.22;6303753;27;96357;-63
2023/01/13 14:18:13;;;;;;;;;5.60;5.00;;;;;15.58;39.35;98323.63;6313780;27;97386;-68
2023/01/13 14:21:20;;;;;;;;;3.80;3.00;;;;;15.58;39.58;98346.19;6317247;27;96359;-64
2023/01/13 14:24:26;;;;;;;;;4.60;4.00;;;;;15.60;39.63;98343.19;6313939;27;97001;-65
2023/01/13 14:27:30;;;;;;;;;4.00;4.00;;;;;15.60;39.62;98338.56;6311185;27;96273;-63
2023/01/13 14:30:34;;;;;;;;;6.50;6.00;;;;;15.50;40.04;98340.41;6311985;27;96610;-64
2023/01/13 14:33:39;;;;;;;;;5.00;4.00;;;;;15.49;39.95;98339.59;6311534;27;96568;-62
2023/01/13 14:36:46;;;;;;;;;4.00;4.00;;;;;15.57;39.75;98344.56;6307992;27;97347;-66
2023/01/13 14:39:51;;;;;;;;;6.00;5.00;;;;;15.34;40.07;98347.72;6317707;27;96329;-66
2023/01/13 14:42:58;;;;;;;;;6.60;3.00;;;;;15.17;40.29;98347.06;6302381;27;96936;-65
2023/01/13 14:46:02;;;;;;;;;6.00;5.00;;;;;15.18;40.32;98348.72;6290721;27;96836;-64
2023/01/13 14:49:06;;;;;;;;;3.40;3.00;;;;;15.09;40.78;98350.28;6308648;27;96400;-64
2023/01/13 14:52:14;;;;;;;;;5.00;5.00;;;;;15.13;40.48;98356.81;6318103;27;97090;-65
2023/01/13 14:55:28;;;;;;;;;5.00;4.00;;;;;14.93;40.41;98318.72;6318563;27;96246;-64
2023/01/13 14:58:32;;;;;;;;;7.00;6.50;;;;;15.06;40.71;98348.91;6320910;27;96364;-63
2023/01/13 15:01:38;;;;;;;;;7.60;6.00;;;;;14.96;40.90;98361.59;6310616;27;99022;-65
2023/01/13 15:04:41;;;;;;;;;4.20;4.00;;;;;14.74;40.88;98332.72;6312684;27;96364;-64
2023/01/13 15:07:50;;;;;;;;;8.00;7.00;;;;;14.86;41.00;98345.25;6316572;27;96823;-64
2023/01/13 15:10:58;;;;;;;;;6.00;6.00;;;;;14.98;41.00;98364.88;6310217;27;96773;-66
2023/01/13 15:14:02;;;;;;;;;5.00;5.00;;;;;15.03;40.94;98367.63;6307174;27;96348;-65
2023/01/13 15:17:15;;;;;;;;;4.20;4.00;;;;;15.08;40.90;98362.22;6302084;27;96507;-64
2023/01/13 15:20:20;;;;;;;;;5.00;4.00;;;;;15.06;40.80;98357.06;6310379;27;96896;-64
2023/01/13 15:23:24;;;;;;;;;5.00;5.00;;;;;15.07;40.83;98361.41;6314987;27;97122;-64
2023/01/13 15:26:30;;;;;;;;;5.60;5.00;;;;;15.10;40.79;98358.16;6307128;27;96592;-64
2023/01/13 15:29:33;;;;;;;;;5.00;5.00;;;;;15.10;40.51;98368.22;6310869;27;96981;-65
2023/01/13 15:32:36;;;;;;;;;5.75;4.50;;;;;15.09;40.90;98353.84;6311214;27;96439;-65
2023/01/13 15:35:43;;;;;;;;;5.75;5.00;;;;;15.14;40.84;98361.19;6311132;27;96402;-65
2023/01/13 15:38:47;;;;;;;;;5.00;5.00;;;;;15.24;40.80;98366.66;6311639;27;96991;-64
2023/01/13 15:48:35;;;;;;;;;7.00;6.40;;;;;15.25;40.69;98364.78;6318973;27;97187;-66
2023/01/13 15:51:39;;;;;;;;;6.00;6.00;;;;;15.24;40.68;98369.38;6318641;27;96306;-64
2023/01/13 15:54:43;;;;;;;;;7.60;6.20;;;;;15.25;40.64;98367.50;6314749;27;96492;-64
2023/01/13 15:57:50;;;;;;;;;8.00;7.60;;;;;15.16;40.75;98376.13;6318540;27;96969;-64